createdAt,value
2022-09-28T00:01:32.188Z,83.1
2022-09-28T00:07:07.673Z,83.2
2022-09-28T00:13:04.361Z,83.2
2022-09-28T00:18:37.350Z,83.3
2022-09-28T00:24:14.824Z,83.2
2022-09-28T00:29:50.416Z,83.2
2022-09-28T00:35:25.408Z,83.3
2022-09-28T00:41:06.980Z,83.2
2022-09-28T00:46:50.892Z,83.2
2022-09-28T00:52:31.970Z,83.1
2022-09-28T00:58:07.892Z,83.2
2022-09-28T01:03:42.821Z,83.3
2022-09-28T01:09:18.001Z,83.3
2022-09-28T01:14:55.184Z,83.4
2022-09-28T01:20:29.910Z,83.5
2022-09-28T01:26:07.646Z,83.4
2022-09-28T01:31:42.844Z,83.5
2022-09-28T01:37:43.739Z,83.5
2022-09-28T01:43:26.528Z,83.6
2022-09-28T01:49:01.858Z,83.7
2022-09-28T01:54:36.844Z,84
2022-09-28T02:00:22.588Z,84.2
2022-09-28T02:05:57.592Z,84.3
2022-09-28T02:11:54.286Z,84.3
2022-09-28T02:17:26.783Z,84.4
2022-09-28T02:23:02.733Z,84.6
2022-09-28T02:28:37.737Z,84.7
2022-09-28T02:34:12.778Z,84.8
2022-09-28T02:39:48.472Z,84.9
2022-09-28T02:45:23.346Z,85
2022-09-28T02:50:59.002Z,84.9
2022-09-28T02:56:33.859Z,84.9
2022-09-28T03:02:08.800Z,85.1
2022-09-28T03:07:45.742Z,85.1
2022-09-28T03:13:42.380Z,85
2022-09-28T03:19:16.083Z,85.1
2022-09-28T03:25:13.480Z,85.2
2022-09-28T03:30:49.473Z,85.3
2022-09-28T03:36:49.817Z,85.3
2022-09-28T03:42:24.758Z,85.3
2022-09-28T03:47:59.974Z,85.4
2022-09-28T03:53:34.979Z,85.5
2022-09-28T03:59:09.580Z,85.4
2022-09-28T04:04:45.213Z,85.4
2022-09-28T04:10:20.307Z,85.7
2022-09-28T04:15:55.139Z,85.7
2022-09-28T04:21:32.018Z,86
2022-09-28T04:27:06.907Z,86.1
2022-09-28T04:32:43.159Z,86.2
2022-09-28T04:38:52.158Z,86.2
2022-09-28T04:44:31.416Z,86.2
2022-09-28T04:50:05.907Z,86.3
2022-09-28T04:55:41.739Z,86.3
2022-09-28T05:01:17.267Z,86.3
2022-09-28T05:06:52.935Z,86.5
2022-09-28T05:12:49.526Z,86.5
2022-09-28T05:18:23.416Z,86.7
2022-09-28T05:24:02.531Z,86.7
2022-09-28T05:29:42.298Z,86.8
2022-09-28T05:35:19.610Z,86.9
2022-09-28T05:40:54.663Z,86.9
2022-09-28T05:46:30.659Z,87.1
2022-09-28T05:52:13.133Z,87
2022-09-28T05:57:48.241Z,87
2022-09-28T06:03:24.021Z,86.9
2022-09-28T06:09:31.350Z,89
2022-09-28T06:15:08.385Z,90.8
2022-09-28T06:20:43.315Z,91.2
2022-09-28T06:26:18.225Z,91.7
2022-09-28T06:31:52.971Z,92
2022-09-28T06:37:28.421Z,91.8
2022-09-28T06:43:02.929Z,92.6
2022-09-28T06:48:37.639Z,92.7
2022-09-28T06:54:13.702Z,92.6
2022-09-28T06:59:50.828Z,92.7
2022-09-28T07:05:26.110Z,92.4
2022-09-28T07:11:22.580Z,92.6
2022-09-28T07:17:14.530Z,90.7
2022-09-28T07:22:51.249Z,91.5
2022-09-28T07:28:26.972Z,91.1
2022-09-28T07:34:01.939Z,91.1
2022-09-28T07:39:36.918Z,89.9
2022-09-28T07:45:12.150Z,88.8
2022-09-28T07:50:48.307Z,87.7
2022-09-28T07:56:23.343Z,85.6
2022-09-28T08:01:58.928Z,83.6
2022-09-28T08:07:35.237Z,84.3
2022-09-28T08:13:31.655Z,85.1
2022-09-28T08:19:05.514Z,86.2
2022-09-28T08:24:49.769Z,86
2022-09-28T08:30:25.970Z,82.2
2022-09-28T08:36:01.877Z,83.8
2022-09-28T08:41:36.673Z,81.1
2022-09-28T08:47:11.640Z,81.7
2022-09-28T08:52:47.195Z,80.9
2022-09-28T08:58:21.931Z,80.2
2022-09-28T09:03:57.210Z,80.6
2022-09-28T09:09:32.552Z,78.9
2022-09-28T09:15:08.618Z,74.2
2022-09-28T09:20:43.925Z,72.7
2022-09-28T09:26:26.093Z,77.1
2022-09-28T09:32:01.551Z,76.2
2022-09-28T09:37:42.481Z,77.4
2022-09-28T09:43:17.706Z,78
2022-09-28T09:49:06.139Z,77.2
2022-09-28T09:54:40.999Z,75.7
2022-09-28T10:00:15.892Z,76.9
2022-09-28T10:05:50.600Z,77.7
2022-09-28T10:11:25.379Z,79.8
2022-09-28T10:17:01.372Z,78.1
2022-09-28T10:22:38.001Z,78.6
2022-09-28T10:28:12.757Z,76.5
2022-09-28T10:33:47.915Z,76.6
2022-09-28T10:39:22.899Z,77.1
2022-09-28T10:44:57.784Z,78.1
2022-09-28T10:50:33.457Z,75.6
2022-09-28T10:56:08.614Z,76.5
2022-09-28T11:01:45.678Z,73.4
2022-09-28T11:07:21.777Z,71.8
2022-09-28T11:13:18.865Z,71.5
2022-09-28T11:18:52.501Z,74.1
2022-09-28T11:24:44.193Z,77.7
2022-09-28T11:30:20.483Z,74.4
2022-09-28T11:35:56.404Z,74
2022-09-28T11:41:32.232Z,76.1
2022-09-28T11:47:08.626Z,72.2
2022-09-28T11:52:43.917Z,73.2
2022-09-28T11:58:18.865Z,69.4
2022-09-28T12:03:53.984Z,71.7
2022-09-28T12:09:37.662Z,69
2022-09-28T12:15:12.592Z,72.4
2022-09-28T12:20:47.538Z,72.3
2022-09-28T12:26:22.641Z,72.5
2022-09-28T12:31:57.944Z,74.5
2022-09-28T12:37:33.617Z,73.4
2022-09-28T12:43:08.734Z,72.4
2022-09-28T12:48:43.703Z,72.8
2022-09-28T12:54:46.012Z,76.6
2022-09-28T13:00:21.865Z,78.2
2022-09-28T13:05:56.968Z,78.5
2022-09-28T13:11:54.021Z,72.9
2022-09-28T13:17:26.857Z,74.1
2022-09-28T13:23:02.014Z,72.9
2022-09-28T13:28:37.110Z,77.1
2022-09-28T13:34:12.183Z,74.2
2022-09-28T13:39:48.115Z,76.1
2022-09-28T13:45:23.369Z,77.3
2022-09-28T13:50:58.320Z,79.2
2022-09-28T13:56:33.282Z,77.7
2022-09-28T14:02:09.926Z,79.4
2022-09-28T14:07:47.455Z,80.8
2022-09-28T14:13:22.239Z,81.7
2022-09-28T14:18:57.399Z,84
2022-09-28T14:24:32.311Z,78.4
2022-09-28T14:30:07.265Z,79.5
2022-09-28T14:35:42.194Z,81.7
2022-09-28T14:41:18.554Z,83
2022-09-28T14:46:53.346Z,82.9
2022-09-28T14:52:28.279Z,83.5
2022-09-28T14:58:04.184Z,84.1
2022-09-28T15:03:39.275Z,84.5
2022-09-28T15:09:14.751Z,84.9
2022-09-28T15:14:49.894Z,85.3
2022-09-28T15:20:25.962Z,85.1
2022-09-28T15:26:00.864Z,81.5
2022-09-28T15:31:58.714Z,81.7
2022-09-28T15:37:40.510Z,80.1
2022-09-28T15:43:15.901Z,80.5
2022-09-28T15:48:50.711Z,77.7
2022-09-28T15:54:25.756Z,80.4
2022-09-28T16:00:01.020Z,79.9
2022-09-28T16:05:39.950Z,79
2022-09-28T16:11:15.281Z,79.8
2022-09-28T16:16:50.262Z,80.7
2022-09-28T16:22:29.086Z,79.1
2022-09-28T16:28:05.535Z,79.6
2022-09-28T16:33:41.222Z,78.6
2022-09-28T16:39:17.417Z,79.9
2022-09-28T16:45:18.609Z,78
2022-09-28T16:50:54.014Z,80.4
2022-09-28T16:56:28.676Z,82
2022-09-28T17:02:04.400Z,79.9
2022-09-28T17:07:40.273Z,81.5
2022-09-28T17:13:15.636Z,81.9
2022-09-28T17:18:50.155Z,82.9
2022-09-28T17:24:25.002Z,82.6
2022-09-28T17:29:59.814Z,83.3
2022-09-28T17:35:39.967Z,82.8
2022-09-28T17:41:21.032Z,82
2022-09-28T17:46:56.070Z,82.6
2022-09-28T17:52:30.924Z,84.9
2022-09-28T17:58:05.853Z,86.3
2022-09-28T18:03:41.500Z,86.9
2022-09-28T18:09:16.332Z,87
2022-09-28T18:14:52.573Z,86.4
2022-09-28T18:20:27.513Z,84.3
2022-09-28T18:26:04.249Z,83.5
2022-09-28T18:31:38.989Z,83.1
2022-09-28T18:37:14.109Z,82.7
2022-09-28T18:42:48.864Z,82.4
2022-09-28T18:48:45.598Z,82.2
2022-09-28T18:54:20.439Z,82.1
2022-09-28T18:59:55.817Z,82
2022-09-28T19:05:31.574Z,81.9
2022-09-28T19:11:06.482Z,81.9
2022-09-28T19:16:46.360Z,81.9
2022-09-28T19:22:21.445Z,81.9
2022-09-28T19:28:07.936Z,82
2022-09-28T19:33:47.200Z,82.1
2022-09-28T19:39:34.556Z,82.1
2022-09-28T19:45:09.805Z,82
2022-09-28T19:51:17.725Z,81.8
2022-09-28T19:56:54.838Z,81.7
2022-09-28T20:02:31.248Z,81.7
2022-09-28T20:08:10.577Z,81.7
2022-09-28T20:13:50.111Z,81.8
2022-09-28T20:19:25.202Z,81.7
2022-09-28T20:25:01.336Z,81.7
2022-09-28T20:30:37.580Z,81.8
2022-09-28T20:37:02.393Z,81.8
2022-09-28T20:42:40.274Z,82
2022-09-28T20:48:20.829Z,82
2022-09-28T20:54:08.664Z,82
2022-09-28T20:59:55.188Z,82.2
2022-09-28T21:05:31.113Z,82.1
2022-09-28T21:11:28.818Z,82
2022-09-28T21:17:03.561Z,81.9
2022-09-28T21:22:50.977Z,81.9
2022-09-28T21:28:25.739Z,81.8
2022-09-28T21:34:01.812Z,81.9
2022-09-28T21:39:41.069Z,82
2022-09-28T21:45:32.979Z,81.8
2022-09-28T21:51:36.009Z,81.9
2022-09-28T21:57:56.969Z,82.1
2022-09-28T22:03:42.866Z,82.2
2022-09-28T22:09:26.991Z,82.5
2022-09-28T22:15:13.000Z,82.6
2022-09-28T22:20:57.400Z,82.6
2022-09-28T22:26:33.465Z,82.7
2022-09-28T22:32:11.125Z,82.7
2022-09-28T22:37:45.964Z,82.6
2022-09-28T22:43:20.911Z,82.6
2022-09-28T22:49:16.839Z,82.5
2022-09-28T22:54:55.631Z,82.5
2022-09-28T23:00:30.472Z,82.5
2022-09-28T23:06:29.215Z,82.5
2022-09-28T23:12:26.434Z,82.4
2022-09-28T23:18:00.304Z,82.4
2022-09-28T23:23:47.155Z,82.4
2022-09-28T23:29:24.556Z,82.6
2022-09-28T23:35:06.792Z,82.7
2022-09-28T23:41:02.955Z,82.9
2022-09-28T23:46:38.123Z,82.9
2022-09-28T23:52:13.966Z,83
2022-09-28T23:57:51.763Z,82.9
